RJTQ(METAR)
07/27 16:00
RJTQ 270700Z 25008KT 9999 SCT025 BKNXXX 28/24 Q0998 RMK A2947=
戻る
トップページへ戻る
IMOC Co,.Ltd.